sensor_id;sensor_type;location;lat;lon;timestamp;P1;durP1;ratioP1;P2;durP2;ratioP2
18322;SDS011;9287;49.456;11.064;2022-07-21T00:00:27;3.72;;;2.92;;
18322;SDS011;9287;49.456;11.064;2022-07-21T00:03:53;3.05;;;2.75;;
18322;SDS011;9287;49.456;11.064;2022-07-21T00:07:20;2.83;;;2.63;;
18322;SDS011;9287;49.456;11.064;2022-07-21T00:10:46;3.20;;;2.83;;
18322;SDS011;9287;49.456;11.064;2022-07-21T00:14:13;2.63;;;2.42;;
18322;SDS011;9287;49.456;11.064;2022-07-21T00:17:42;3.08;;;2.80;;
18322;SDS011;9287;49.456;11.064;2022-07-21T00:21:08;3.25;;;3.00;;
18322;SDS011;9287;49.456;11.064;2022-07-21T00:24:35;2.80;;;2.60;;
18322;SDS011;9287;49.456;11.064;2022-07-21T00:28:01;2.65;;;2.10;;
18322;SDS011;9287;49.456;11.064;2022-07-21T00:31:28;2.10;;;1.88;;
18322;SDS011;9287;49.456;11.064;2022-07-21T00:35:02;2.80;;;1.77;;
18322;SDS011;9287;49.456;11.064;2022-07-21T00:38:29;2.08;;;1.33;;
18322;SDS011;9287;49.456;11.064;2022-07-21T00:41:55;2.70;;;2.03;;
18322;SDS011;9287;49.456;11.064;2022-07-21T00:45:22;1.73;;;1.63;;
18322;SDS011;9287;49.456;11.064;2022-07-21T00:48:50;1.90;;;1.60;;
18322;SDS011;9287;49.456;11.064;2022-07-21T00:52:18;1.92;;;1.60;;
18322;SDS011;9287;49.456;11.064;2022-07-21T00:55:45;1.52;;;1.42;;
18322;SDS011;9287;49.456;11.064;2022-07-21T00:59:12;1.70;;;1.60;;
18322;SDS011;9287;49.456;11.064;2022-07-21T01:02:41;1.90;;;1.80;;
18322;SDS011;9287;49.456;11.064;2022-07-21T01:06:08;3.03;;;2.72;;
18322;SDS011;9287;49.456;11.064;2022-07-21T01:09:36;2.17;;;1.92;;
18322;SDS011;9287;49.456;11.064;2022-07-21T01:13:02;2.90;;;2.08;;
18322;SDS011;9287;49.456;11.064;2022-07-21T01:16:29;3.72;;;2.40;;
18322;SDS011;9287;49.456;11.064;2022-07-21T01:19:55;3.05;;;2.22;;
18322;SDS011;9287;49.456;11.064;2022-07-21T01:23:23;1.95;;;1.85;;
18322;SDS011;9287;49.456;11.064;2022-07-21T01:26:51;2.50;;;1.90;;
18322;SDS011;9287;49.456;11.064;2022-07-21T01:30:17;2.53;;;2.33;;
18322;SDS011;9287;49.456;11.064;2022-07-21T01:33:44;2.63;;;2.35;;
18322;SDS011;9287;49.456;11.064;2022-07-21T01:37:10;2.55;;;2.17;;
18322;SDS011;9287;49.456;11.064;2022-07-21T01:40:59;1.95;;;1.85;;
18322;SDS011;9287;49.456;11.064;2022-07-21T01:44:24;6.75;;;1.85;;
18322;SDS011;9287;49.456;11.064;2022-07-21T01:47:52;2.92;;;1.90;;
18322;SDS011;9287;49.456;11.064;2022-07-21T01:51:19;2.03;;;1.90;;
18322;SDS011;9287;49.456;11.064;2022-07-21T01:54:45;1.98;;;1.88;;
18322;SDS011;9287;49.456;11.064;2022-07-21T01:58:13;2.47;;;2.10;;
18322;SDS011;9287;49.456;11.064;2022-07-21T02:01:39;2.88;;;2.53;;
18322;SDS011;9287;49.456;11.064;2022-07-21T02:05:06;2.40;;;2.20;;
18322;SDS011;9287;49.456;11.064;2022-07-21T02:08:33;2.10;;;1.90;;
18322;SDS011;9287;49.456;11.064;2022-07-21T02:12:00;2.60;;;2.40;;
18322;SDS011;9287;49.456;11.064;2022-07-21T02:15:30;5.00;;;2.67;;
18322;SDS011;9287;49.456;11.064;2022-07-21T02:18:57;3.03;;;2.83;;
18322;SDS011;9287;49.456;11.064;2022-07-21T02:22:24;4.78;;;2.70;;
18322;SDS011;9287;49.456;11.064;2022-07-21T02:25:51;3.38;;;2.47;;
18322;SDS011;9287;49.456;11.064;2022-07-21T02:29:17;3.65;;;2.88;;
18322;SDS011;9287;49.456;11.064;2022-07-21T02:32:46;3.13;;;2.83;;
18322;SDS011;9287;49.456;11.064;2022-07-21T02:36:12;2.83;;;2.63;;
18322;SDS011;9287;49.456;11.064;2022-07-21T02:39:39;3.90;;;3.60;;
18322;SDS011;9287;49.456;11.064;2022-07-21T02:43:06;3.40;;;3.20;;
18322;SDS011;9287;49.456;11.064;2022-07-21T02:46:32;4.05;;;3.75;;
18322;SDS011;9287;49.456;11.064;2022-07-21T02:50:01;4.38;;;3.20;;
18322;SDS011;9287;49.456;11.064;2022-07-21T02:53:29;3.72;;;3.50;;
18322;SDS011;9287;49.456;11.064;2022-07-21T02:56:55;3.63;;;3.33;;
18322;SDS011;9287;49.456;11.064;2022-07-21T03:00:34;7.10;;;3.80;;
18322;SDS011;9287;49.456;11.064;2022-07-21T03:04:01;4.03;;;3.72;;
18322;SDS011;9287;49.456;11.064;2022-07-21T03:07:30;3.70;;;3.40;;
18322;SDS011;9287;49.456;11.064;2022-07-21T03:10:57;4.00;;;3.72;;
18322;SDS011;9287;49.456;11.064;2022-07-21T03:14:23;4.30;;;3.85;;
18322;SDS011;9287;49.456;11.064;2022-07-21T03:17:49;5.97;;;4.18;;
18322;SDS011;9287;49.456;11.064;2022-07-21T03:21:17;4.57;;;4.20;;
18322;SDS011;9287;49.456;11.064;2022-07-21T03:24:46;4.38;;;3.97;;
18322;SDS011;9287;49.456;11.064;2022-07-21T03:28:13;4.93;;;4.53;;
18322;SDS011;9287;49.456;11.064;2022-07-21T03:31:39;4.55;;;4.13;;
18322;SDS011;9287;49.456;11.064;2022-07-21T03:35:06;5.07;;;4.22;;
18322;SDS011;9287;49.456;11.064;2022-07-21T03:38:35;5.05;;;4.70;;
18322;SDS011;9287;49.456;11.064;2022-07-21T03:42:02;4.53;;;4.13;;
18322;SDS011;9287;49.456;11.064;2022-07-21T03:45:32;5.55;;;5.05;;
18322;SDS011;9287;49.456;11.064;2022-07-21T03:48:58;5.88;;;5.38;;
18322;SDS011;9287;49.456;11.064;2022-07-21T03:52:25;6.03;;;5.60;;
18322;SDS011;9287;49.456;11.064;2022-07-21T03:55:52;5.85;;;5.40;;
18322;SDS011;9287;49.456;11.064;2022-07-21T03:59:18;6.72;;;6.13;;
18322;SDS011;9287;49.456;11.064;2022-07-21T04:02:48;6.07;;;5.57;;
18322;SDS011;9287;49.456;11.064;2022-07-21T04:06:14;5.60;;;5.20;;
18322;SDS011;9287;49.456;11.064;2022-07-21T04:09:40;6.35;;;5.85;;
18322;SDS011;9287;49.456;11.064;2022-07-21T04:13:09;7.45;;;6.85;;
18322;SDS011;9287;49.456;11.064;2022-07-21T04:16:36;8.52;;;7.72;;
18322;SDS011;9287;49.456;11.064;2022-07-21T04:20:02;7.53;;;6.82;;
18322;SDS011;9287;49.456;11.064;2022-07-21T04:23:29;8.75;;;7.90;;
18322;SDS011;9287;49.456;11.064;2022-07-21T04:26:55;7.70;;;7.10;;
18322;SDS011;9287;49.456;11.064;2022-07-21T04:30:23;8.80;;;8.00;;
18322;SDS011;9287;49.456;11.064;2022-07-21T04:33:49;9.10;;;8.30;;
18322;SDS011;9287;49.456;11.064;2022-07-21T04:37:15;10.70;;;9.73;;
18322;SDS011;9287;49.456;11.064;2022-07-21T04:40:41;10.30;;;9.25;;
18322;SDS011;9287;49.456;11.064;2022-07-21T04:44:08;10.50;;;9.20;;
18322;SDS011;9287;49.456;11.064;2022-07-21T04:47:42;11.25;;;10.15;;
18322;SDS011;9287;49.456;11.064;2022-07-21T04:51:09;10.82;;;9.77;;
18322;SDS011;9287;49.456;11.064;2022-07-21T04:54:35;10.95;;;9.93;;
18322;SDS011;9287;49.456;11.064;2022-07-21T04:58:01;10.80;;;9.80;;
18322;SDS011;9287;49.456;11.064;2022-07-21T05:01:28;10.68;;;9.77;;
18322;SDS011;9287;49.456;11.064;2022-07-21T05:04:56;12.05;;;10.85;;
18322;SDS011;9287;49.456;11.064;2022-07-21T05:08:22;13.15;;;11.95;;
18322;SDS011;9287;49.456;11.064;2022-07-21T05:11:49;12.48;;;11.20;;
18322;SDS011;9287;49.456;11.064;2022-07-21T05:15:15;14.48;;;13.10;;
18322;SDS011;9287;49.456;11.064;2022-07-21T05:18:41;13.20;;;11.63;;
18322;SDS011;9287;49.456;11.064;2022-07-21T05:22:10;12.48;;;11.38;;
18322;SDS011;9287;49.456;11.064;2022-07-21T05:25:37;12.88;;;11.57;;
18322;SDS011;9287;49.456;11.064;2022-07-21T05:29:03;13.63;;;12.38;;
18322;SDS011;9287;49.456;11.064;2022-07-21T05:32:30;13.55;;;12.20;;
18322;SDS011;9287;49.456;11.064;2022-07-21T05:35:56;14.63;;;13.13;;
18322;SDS011;9287;49.456;11.064;2022-07-21T05:39:24;13.55;;;12.27;;
18322;SDS011;9287;49.456;11.064;2022-07-21T05:42:50;15.40;;;13.30;;
18322;SDS011;9287;49.456;11.064;2022-07-21T05:46:16;14.93;;;13.45;;
18322;SDS011;9287;49.456;11.064;2022-07-21T05:49:43;15.02;;;13.50;;
18322;SDS011;9287;49.456;11.064;2022-07-21T05:53:09;15.43;;;13.73;;
18322;SDS011;9287;49.456;11.064;2022-07-21T05:56:37;15.63;;;14.13;;
18322;SDS011;9287;49.456;11.064;2022-07-21T06:00:12;14.93;;;13.48;;
18322;SDS011;9287;49.456;11.064;2022-07-21T06:03:40;16.20;;;14.63;;
18322;SDS011;9287;49.456;11.064;2022-07-21T06:07:07;15.57;;;14.05;;
18322;SDS011;9287;49.456;11.064;2022-07-21T06:10:33;14.85;;;13.55;;
18322;SDS011;9287;49.456;11.064;2022-07-21T06:14:03;15.82;;;14.32;;
18322;SDS011;9287;49.456;11.064;2022-07-21T06:17:30;15.45;;;14.05;;
18322;SDS011;9287;49.456;11.064;2022-07-21T06:20:56;14.38;;;13.07;;
18322;SDS011;9287;49.456;11.064;2022-07-21T06:24:23;16.15;;;14.55;;
18322;SDS011;9287;49.456;11.064;2022-07-21T06:27:49;15.23;;;13.73;;
18322;SDS011;9287;49.456;11.064;2022-07-21T06:31:17;15.15;;;13.65;;
18322;SDS011;9287;49.456;11.064;2022-07-21T06:34:44;16.38;;;14.82;;
18322;SDS011;9287;49.456;11.064;2022-07-21T06:38:11;15.00;;;13.57;;
18322;SDS011;9287;49.456;11.064;2022-07-21T06:41:38;15.48;;;13.93;;
18322;SDS011;9287;49.456;11.064;2022-07-21T06:45:25;15.00;;;13.70;;
18322;SDS011;9287;49.456;11.064;2022-07-21T06:48:53;16.40;;;14.73;;
18322;SDS011;9287;49.456;11.064;2022-07-21T06:52:19;14.52;;;13.23;;
18322;SDS011;9287;49.456;11.064;2022-07-21T06:55:45;15.48;;;13.88;;
18322;SDS011;9287;49.456;11.064;2022-07-21T06:59:12;15.27;;;13.95;;
18322;SDS011;9287;49.456;11.064;2022-07-21T07:02:40;16.77;;;14.75;;
18322;SDS011;9287;49.456;11.064;2022-07-21T07:06:07;15.43;;;13.93;;
18322;SDS011;9287;49.456;11.064;2022-07-21T07:09:34;15.15;;;13.70;;
18322;SDS011;9287;49.456;11.064;2022-07-21T07:13:00;15.30;;;13.88;;
18322;SDS011;9287;49.456;11.064;2022-07-21T07:16:39;16.17;;;14.73;;
18322;SDS011;9287;49.456;11.064;2022-07-21T07:20:07;16.33;;;14.82;;
18322;SDS011;9287;49.456;11.064;2022-07-21T07:23:37;17.25;;;15.75;;
18322;SDS011;9287;49.456;11.064;2022-07-21T07:27:03;15.48;;;13.88;;
18322;SDS011;9287;49.456;11.064;2022-07-21T07:30:30;16.02;;;14.43;;
18322;SDS011;9287;49.456;11.064;2022-07-21T07:33:57;16.55;;;15.15;;
18322;SDS011;9287;49.456;11.064;2022-07-21T07:37:24;15.48;;;14.07;;
18322;SDS011;9287;49.456;11.064;2022-07-21T07:40:51;15.75;;;14.25;;
18322;SDS011;9287;49.456;11.064;2022-07-21T07:44:18;15.57;;;14.18;;
18322;SDS011;9287;49.456;11.064;2022-07-21T07:47:44;17.10;;;15.52;;
18322;SDS011;9287;49.456;11.064;2022-07-21T07:51:11;17.02;;;15.40;;
18322;SDS011;9287;49.456;11.064;2022-07-21T07:54:39;15.65;;;14.15;;
18322;SDS011;9287;49.456;11.064;2022-07-21T07:58:06;15.80;;;14.38;;
18322;SDS011;9287;49.456;11.064;2022-07-21T08:01:32;15.82;;;14.43;;
18322;SDS011;9287;49.456;11.064;2022-07-21T08:04:58;13.20;;;12.05;;
18322;SDS011;9287;49.456;11.064;2022-07-21T08:08:29;13.40;;;12.10;;
18322;SDS011;9287;49.456;11.064;2022-07-21T08:11:58;14.68;;;13.25;;
18322;SDS011;9287;49.456;11.064;2022-07-21T08:15:32;14.00;;;12.68;;
18322;SDS011;9287;49.456;11.064;2022-07-21T08:18:58;14.50;;;13.05;;
18322;SDS011;9287;49.456;11.064;2022-07-21T08:22:25;13.43;;;12.05;;
18322;SDS011;9287;49.456;11.064;2022-07-21T08:25:51;14.50;;;13.10;;
18322;SDS011;9287;49.456;11.064;2022-07-21T08:29:19;12.23;;;11.20;;
18322;SDS011;9287;49.456;11.064;2022-07-21T08:32:49;12.25;;;11.05;;
18322;SDS011;9287;49.456;11.064;2022-07-21T08:36:16;12.20;;;10.77;;
18322;SDS011;9287;49.456;11.064;2022-07-21T08:39:43;12.98;;;11.68;;
18322;SDS011;9287;49.456;11.064;2022-07-21T08:43:10;11.23;;;10.25;;
18322;SDS011;9287;49.456;11.064;2022-07-21T08:46:38;11.63;;;10.57;;
18322;SDS011;9287;49.456;11.064;2022-07-21T08:50:10;10.93;;;9.82;;
18322;SDS011;9287;49.456;11.064;2022-07-21T08:53:37;11.18;;;10.18;;
18322;SDS011;9287;49.456;11.064;2022-07-21T08:57:03;10.70;;;9.32;;
18322;SDS011;9287;49.456;11.064;2022-07-21T09:00:33;9.85;;;8.95;;
18322;SDS011;9287;49.456;11.064;2022-07-21T09:07:49;9.73;;;8.80;;
18322;SDS011;9287;49.456;11.064;2022-07-21T09:11:18;8.57;;;7.78;;
18322;SDS011;9287;49.456;11.064;2022-07-21T09:14:45;8.43;;;7.72;;
18322;SDS011;9287;49.456;11.064;2022-07-21T09:18:14;8.93;;;8.13;;
18322;SDS011;9287;49.456;11.064;2022-07-21T09:21:47;7.97;;;7.28;;
18322;SDS011;9287;49.456;11.064;2022-07-21T09:25:33;7.55;;;6.60;;
18322;SDS011;9287;49.456;11.064;2022-07-21T09:29:09;6.90;;;6.32;;
18322;SDS011;9287;49.456;11.064;2022-07-21T09:32:36;6.40;;;5.90;;
18322;SDS011;9287;49.456;11.064;2022-07-21T09:36:05;7.10;;;6.50;;
18322;SDS011;9287;49.456;11.064;2022-07-21T09:39:40;6.25;;;5.80;;
18322;SDS011;9287;49.456;11.064;2022-07-21T09:43:14;6.00;;;5.50;;
18322;SDS011;9287;49.456;11.064;2022-07-21T09:47:08;6.90;;;6.40;;
18322;SDS011;9287;49.456;11.064;2022-07-21T09:51:23;6.50;;;6.03;;
18322;SDS011;9287;49.456;11.064;2022-07-21T09:55:01;7.00;;;6.50;;
18322;SDS011;9287;49.456;11.064;2022-07-21T09:58:28;8.48;;;7.05;;
18322;SDS011;9287;49.456;11.064;2022-07-21T10:02:16;7.47;;;6.78;;
18322;SDS011;9287;49.456;11.064;2022-07-21T10:05:42;6.55;;;6.05;;
18322;SDS011;9287;49.456;11.064;2022-07-21T10:09:11;6.80;;;6.10;;
18322;SDS011;9287;49.456;11.064;2022-07-21T10:12:38;6.85;;;6.30;;
18322;SDS011;9287;49.456;11.064;2022-07-21T10:16:06;6.63;;;6.18;;
18322;SDS011;9287;49.456;11.064;2022-07-21T10:19:35;5.90;;;5.47;;
18322;SDS011;9287;49.456;11.064;2022-07-21T10:23:06;6.05;;;5.65;;
18322;SDS011;9287;49.456;11.064;2022-07-21T10:26:38;9.82;;;7.78;;
18322;SDS011;9287;49.456;11.064;2022-07-21T10:30:36;8.20;;;7.60;;
18322;SDS011;9287;49.456;11.064;2022-07-21T10:34:08;6.00;;;5.43;;
18322;SDS011;9287;49.456;11.064;2022-07-21T10:37:50;6.10;;;5.60;;
18322;SDS011;9287;49.456;11.064;2022-07-21T10:41:35;4.70;;;4.40;;
18322;SDS011;9287;49.456;11.064;2022-07-21T10:45:03;4.90;;;4.60;;
18322;SDS011;9287;49.456;11.064;2022-07-21T10:49:07;6.25;;;5.10;;
18322;SDS011;9287;49.456;11.064;2022-07-21T10:56:42;5.25;;;4.95;;
18322;SDS011;9287;49.456;11.064;2022-07-21T11:00:20;4.75;;;4.40;;
18322;SDS011;9287;49.456;11.064;2022-07-21T11:04:06;5.50;;;5.03;;
18322;SDS011;9287;49.456;11.064;2022-07-21T11:11:15;2.58;;;2.47;;
18322;SDS011;9287;49.456;11.064;2022-07-21T11:14:43;2.30;;;2.20;;
18322;SDS011;9287;49.456;11.064;2022-07-21T11:18:11;2.72;;;2.53;;
18322;SDS011;9287;49.456;11.064;2022-07-21T11:21:54;2.85;;;2.50;;
18322;SDS011;9287;49.456;11.064;2022-07-21T11:25:21;2.88;;;2.47;;
18322;SDS011;9287;49.456;11.064;2022-07-21T11:29:03;3.20;;;3.00;;
18322;SDS011;9287;49.456;11.064;2022-07-21T11:32:33;2.65;;;2.45;;
18322;SDS011;9287;49.456;11.064;2022-07-21T11:36:00;2.88;;;2.67;;
18322;SDS011;9287;49.456;11.064;2022-07-21T11:39:46;3.47;;;3.28;;
18322;SDS011;9287;49.456;11.064;2022-07-21T11:43:13;3.03;;;2.83;;
18322;SDS011;9287;49.456;11.064;2022-07-21T11:46:52;5.88;;;3.00;;
18322;SDS011;9287;49.456;11.064;2022-07-21T11:50:19;3.47;;;3.17;;
18322;SDS011;9287;49.456;11.064;2022-07-21T11:53:46;3.22;;;2.92;;
18322;SDS011;9287;49.456;11.064;2022-07-21T11:57:14;2.97;;;2.78;;
18322;SDS011;9287;49.456;11.064;2022-07-21T12:00:41;2.72;;;2.53;;
18322;SDS011;9287;49.456;11.064;2022-07-21T12:04:35;2.65;;;2.50;;
18322;SDS011;9287;49.456;11.064;2022-07-21T12:08:03;2.38;;;2.17;;
18322;SDS011;9287;49.456;11.064;2022-07-21T12:11:33;2.85;;;2.13;;
18322;SDS011;9287;49.456;11.064;2022-07-21T12:15:12;2.35;;;2.15;;
18322;SDS011;9287;49.456;11.064;2022-07-21T12:18:40;2.60;;;2.50;;
18322;SDS011;9287;49.456;11.064;2022-07-21T12:22:07;2.42;;;2.22;;
18322;SDS011;9287;49.456;11.064;2022-07-21T12:25:45;2.35;;;2.15;;
18322;SDS011;9287;49.456;11.064;2022-07-21T12:29:24;2.75;;;2.20;;
18322;SDS011;9287;49.456;11.064;2022-07-21T12:33:00;2.17;;;2.08;;
18322;SDS011;9287;49.456;11.064;2022-07-21T12:36:52;2.75;;;2.00;;
18322;SDS011;9287;49.456;11.064;2022-07-21T12:40:25;2.22;;;2.13;;
18322;SDS011;9287;49.456;11.064;2022-07-21T12:43:53;2.67;;;2.20;;
18322;SDS011;9287;49.456;11.064;2022-07-21T12:47:21;2.35;;;2.25;;
18322;SDS011;9287;49.456;11.064;2022-07-21T12:51:10;2.67;;;2.47;;
18322;SDS011;9287;49.456;11.064;2022-07-21T12:54:38;3.38;;;3.13;;
18322;SDS011;9287;49.456;11.064;2022-07-21T12:58:05;3.00;;;2.38;;
18322;SDS011;9287;49.456;11.064;2022-07-21T13:01:32;3.75;;;2.28;;
18322;SDS011;9287;49.456;11.064;2022-07-21T13:05:12;3.65;;;2.50;;
18322;SDS011;9287;49.456;11.064;2022-07-21T13:08:43;2.70;;;2.22;;
18322;SDS011;9287;49.456;11.064;2022-07-21T13:12:11;2.50;;;2.30;;
18322;SDS011;9287;49.456;11.064;2022-07-21T13:15:38;5.47;;;2.60;;
18322;SDS011;9287;49.456;11.064;2022-07-21T13:19:04;4.13;;;2.70;;
18322;SDS011;9287;49.456;11.064;2022-07-21T13:22:34;2.78;;;2.47;;
18322;SDS011;9287;49.456;11.064;2022-07-21T13:26:01;2.50;;;2.30;;
18322;SDS011;9287;49.456;11.064;2022-07-21T13:29:27;3.15;;;2.40;;
18322;SDS011;9287;49.456;11.064;2022-07-21T13:32:54;2.67;;;2.47;;
18322;SDS011;9287;49.456;11.064;2022-07-21T13:36:20;2.33;;;2.22;;
18322;SDS011;9287;49.456;11.064;2022-07-21T13:39:55;4.75;;;3.00;;
18322;SDS011;9287;49.456;11.064;2022-07-21T13:43:41;2.30;;;2.20;;
18322;SDS011;9287;49.456;11.064;2022-07-21T13:47:08;3.00;;;2.42;;
18322;SDS011;9287;49.456;11.064;2022-07-21T13:50:34;2.45;;;2.25;;
18322;SDS011;9287;49.456;11.064;2022-07-21T13:54:01;2.70;;;2.50;;
18322;SDS011;9287;49.456;11.064;2022-07-21T13:57:29;2.50;;;2.10;;
18322;SDS011;9287;49.456;11.064;2022-07-21T14:00:55;2.40;;;2.20;;
18322;SDS011;9287;49.456;11.064;2022-07-21T14:04:23;2.10;;;2.00;;
18322;SDS011;9287;49.456;11.064;2022-07-21T14:07:49;2.45;;;2.08;;
18322;SDS011;9287;49.456;11.064;2022-07-21T14:11:15;2.30;;;2.10;;
18322;SDS011;9287;49.456;11.064;2022-07-21T14:14:41;2.35;;;2.03;;
18322;SDS011;9287;49.456;11.064;2022-07-21T14:18:07;2.35;;;1.70;;
18322;SDS011;9287;49.456;11.064;2022-07-21T14:21:33;2.10;;;1.90;;
18322;SDS011;9287;49.456;11.064;2022-07-21T14:25:00;2.05;;;1.95;;
18322;SDS011;9287;49.456;11.064;2022-07-21T14:28:28;3.60;;;2.10;;
18322;SDS011;9287;49.456;11.064;2022-07-21T14:31:54;3.95;;;2.03;;
18322;SDS011;9287;49.456;11.064;2022-07-21T14:35:21;3.60;;;1.92;;
18322;SDS011;9287;49.456;11.064;2022-07-21T14:38:47;3.08;;;2.50;;
18322;SDS011;9287;49.456;11.064;2022-07-21T14:42:20;2.60;;;2.10;;
18322;SDS011;9287;49.456;11.064;2022-07-21T14:45:48;2.55;;;2.35;;
18322;SDS011;9287;49.456;11.064;2022-07-21T14:48:33;2.58;;;2.38;;
18322;SDS011;9287;49.456;11.064;2022-07-21T14:51:22;2.20;;;2.10;;
18322;SDS011;9287;49.456;11.064;2022-07-21T14:53:50;2.05;;;1.95;;
18322;SDS011;9287;49.456;11.064;2022-07-21T14:56:24;2.65;;;2.25;;
18322;SDS011;9287;49.456;11.064;2022-07-21T14:59:13;2.28;;;2.08;;
18322;SDS011;9287;49.456;11.064;2022-07-21T15:01:45;2.70;;;2.30;;
18322;SDS011;9287;49.456;11.064;2022-07-21T15:04:14;2.85;;;2.58;;
18322;SDS011;9287;49.456;11.064;2022-07-21T15:06:43;2.80;;;2.47;;
18322;SDS011;9287;49.456;11.064;2022-07-21T15:09:12;2.90;;;2.70;;
18322;SDS011;9287;49.456;11.064;2022-07-21T15:12:38;3.85;;;3.55;;
18322;SDS011;9287;49.456;11.064;2022-07-21T15:15:44;4.30;;;2.78;;
18322;SDS011;9287;49.456;11.064;2022-07-21T15:18:55;5.07;;;4.65;;
18322;SDS011;9287;49.456;11.064;2022-07-21T15:21:31;4.93;;;4.45;;
18322;SDS011;9287;49.456;11.064;2022-07-21T15:24:04;3.60;;;3.30;;
18322;SDS011;9287;49.456;11.064;2022-07-21T15:26:35;3.85;;;3.30;;
18322;SDS011;9287;49.456;11.064;2022-07-21T15:29:02;4.55;;;4.20;;
18322;SDS011;9287;49.456;11.064;2022-07-21T15:31:37;4.35;;;3.95;;
18322;SDS011;9287;49.456;11.064;2022-07-21T15:34:07;3.45;;;2.95;;
18322;SDS011;9287;49.456;11.064;2022-07-21T15:36:35;3.53;;;3.33;;
18322;SDS011;9287;49.456;11.064;2022-07-21T15:39:03;2.83;;;2.63;;
18322;SDS011;9287;49.456;11.064;2022-07-21T15:41:31;3.58;;;3.20;;
18322;SDS011;9287;49.456;11.064;2022-07-21T15:44:20;3.97;;;3.63;;
18322;SDS011;9287;49.456;11.064;2022-07-21T15:46:49;3.63;;;3.28;;
18322;SDS011;9287;49.456;11.064;2022-07-21T15:49:19;4.68;;;4.05;;
18322;SDS011;9287;49.456;11.064;2022-07-21T15:51:47;5.20;;;4.80;;
18322;SDS011;9287;49.456;11.064;2022-07-21T15:54:15;4.22;;;3.13;;
18322;SDS011;9287;49.456;11.064;2022-07-21T15:57:03;3.83;;;3.55;;
18322;SDS011;9287;49.456;11.064;2022-07-21T15:59:30;3.05;;;2.85;;
18322;SDS011;9287;49.456;11.064;2022-07-21T16:02:03;3.53;;;3.22;;
18322;SDS011;9287;49.456;11.064;2022-07-21T16:04:34;3.03;;;2.83;;
18322;SDS011;9287;49.456;11.064;2022-07-21T16:07:02;3.20;;;2.90;;
18322;SDS011;9287;49.456;11.064;2022-07-21T16:09:31;2.95;;;2.72;;
18322;SDS011;9287;49.456;11.064;2022-07-21T16:12:01;3.88;;;2.72;;
18322;SDS011;9287;49.456;11.064;2022-07-21T16:14:30;2.92;;;2.67;;
18322;SDS011;9287;49.456;11.064;2022-07-21T16:16:58;3.60;;;2.78;;
18322;SDS011;9287;49.456;11.064;2022-07-21T16:19:26;3.03;;;2.83;;
18322;SDS011;9287;49.456;11.064;2022-07-21T16:21:57;3.30;;;2.97;;
18322;SDS011;9287;49.456;11.064;2022-07-21T16:24:40;3.10;;;2.90;;
18322;SDS011;9287;49.456;11.064;2022-07-21T16:27:51;4.32;;;2.88;;
18322;SDS011;9287;49.456;11.064;2022-07-21T16:31:01;3.15;;;2.95;;
18322;SDS011;9287;49.456;11.064;2022-07-21T16:34:14;5.05;;;3.38;;
18322;SDS011;9287;49.456;11.064;2022-07-21T16:36:42;3.17;;;2.97;;
18322;SDS011;9287;49.456;11.064;2022-07-21T16:39:20;3.05;;;2.80;;
18322;SDS011;9287;49.456;11.064;2022-07-21T16:42:03;4.97;;;2.95;;
18322;SDS011;9287;49.456;11.064;2022-07-21T16:44:38;4.38;;;2.75;;
18322;SDS011;9287;49.456;11.064;2022-07-21T16:47:13;3.10;;;2.80;;
18322;SDS011;9287;49.456;11.064;2022-07-21T16:49:49;3.17;;;2.97;;
18322;SDS011;9287;49.456;11.064;2022-07-21T16:52:17;3.30;;;3.00;;
18322;SDS011;9287;49.456;11.064;2022-07-21T16:54:47;2.80;;;2.60;;
18322;SDS011;9287;49.456;11.064;2022-07-21T16:57:14;2.97;;;2.78;;
18322;SDS011;9287;49.456;11.064;2022-07-21T16:59:43;3.65;;;2.80;;
18322;SDS011;9287;49.456;11.064;2022-07-21T17:02:11;3.17;;;2.88;;
18322;SDS011;9287;49.456;11.064;2022-07-21T17:04:55;2.88;;;2.67;;
18322;SDS011;9287;49.456;11.064;2022-07-21T17:07:42;3.28;;;2.95;;
18322;SDS011;9287;49.456;11.064;2022-07-21T17:11:10;3.47;;;2.92;;
18322;SDS011;9287;49.456;11.064;2022-07-21T17:14:38;2.35;;;2.20;;
18322;SDS011;9287;49.456;11.064;2022-07-21T17:18:05;3.10;;;2.65;;
18322;SDS011;9287;49.456;11.064;2022-07-21T17:20:36;2.75;;;2.55;;
18322;SDS011;9287;49.456;11.064;2022-07-21T17:24:02;2.70;;;2.50;;
18322;SDS011;9287;49.456;11.064;2022-07-21T17:27:32;3.10;;;2.83;;
18322;SDS011;9287;49.456;11.064;2022-07-21T17:30:59;3.10;;;2.90;;
18322;SDS011;9287;49.456;11.064;2022-07-21T17:34:25;2.92;;;2.72;;
18322;SDS011;9287;49.456;11.064;2022-07-21T17:37:52;3.15;;;2.95;;
18322;SDS011;9287;49.456;11.064;2022-07-21T17:41:19;3.28;;;2.92;;
18322;SDS011;9287;49.456;11.064;2022-07-21T17:44:45;3.72;;;2.80;;
18322;SDS011;9287;49.456;11.064;2022-07-21T17:48:12;2.88;;;2.63;;
18322;SDS011;9287;49.456;11.064;2022-07-21T17:51:38;3.63;;;2.60;;
18322;SDS011;9287;49.456;11.064;2022-07-21T17:55:05;3.17;;;2.85;;
18322;SDS011;9287;49.456;11.064;2022-07-21T17:58:32;3.38;;;2.80;;
18322;SDS011;9287;49.456;11.064;2022-07-21T18:01:59;3.95;;;3.30;;
18322;SDS011;9287;49.456;11.064;2022-07-21T18:05:25;4.53;;;3.00;;
18322;SDS011;9287;49.456;11.064;2022-07-21T18:08:52;3.60;;;2.75;;
18322;SDS011;9287;49.456;11.064;2022-07-21T18:12:18;3.58;;;2.55;;
18322;SDS011;9287;49.456;11.064;2022-07-21T18:15:44;2.85;;;2.60;;
18322;SDS011;9287;49.456;11.064;2022-07-21T18:19:12;2.90;;;2.70;;
18322;SDS011;9287;49.456;11.064;2022-07-21T18:22:39;8.05;;;7.07;;
18322;SDS011;9287;49.456;11.064;2022-07-21T18:25:48;9.27;;;8.48;;
18322;SDS011;9287;49.456;11.064;2022-07-21T18:28:40;2.90;;;2.70;;
18322;SDS011;9287;49.456;11.064;2022-07-21T18:32:07;3.13;;;2.83;;
18322;SDS011;9287;49.456;11.064;2022-07-21T18:35:35;2.88;;;2.67;;
18322;SDS011;9287;49.456;11.064;2022-07-21T18:39:00;4.80;;;4.22;;
18322;SDS011;9287;49.456;11.064;2022-07-21T18:42:27;6.78;;;6.13;;
18322;SDS011;9287;49.456;11.064;2022-07-21T18:45:52;5.57;;;3.63;;
18322;SDS011;9287;49.456;11.064;2022-07-21T18:49:18;2.72;;;2.53;;
18322;SDS011;9287;49.456;11.064;2022-07-21T18:52:45;3.78;;;3.22;;
18322;SDS011;9287;49.456;11.064;2022-07-21T18:56:12;2.90;;;2.67;;
18322;SDS011;9287;49.456;11.064;2022-07-21T18:59:38;3.75;;;3.45;;
18322;SDS011;9287;49.456;11.064;2022-07-21T19:03:04;3.03;;;2.83;;
18322;SDS011;9287;49.456;11.064;2022-07-21T19:06:31;3.45;;;3.15;;
18322;SDS011;9287;49.456;11.064;2022-07-21T19:10:15;18.05;;;16.38;;
18322;SDS011;9287;49.456;11.064;2022-07-21T19:13:42;18.70;;;16.77;;
18322;SDS011;9287;49.456;11.064;2022-07-21T19:17:09;3.42;;;3.22;;
18322;SDS011;9287;49.456;11.064;2022-07-21T19:20:36;5.85;;;3.47;;
18322;SDS011;9287;49.456;11.064;2022-07-21T19:24:02;6.60;;;6.10;;
18322;SDS011;9287;49.456;11.064;2022-07-21T19:27:30;9.85;;;8.98;;
18322;SDS011;9287;49.456;11.064;2022-07-21T19:30:59;13.50;;;12.45;;
18322;SDS011;9287;49.456;11.064;2022-07-21T19:34:26;8.85;;;8.00;;
18322;SDS011;9287;49.456;11.064;2022-07-21T19:37:54;19.17;;;17.30;;
18322;SDS011;9287;49.456;11.064;2022-07-21T19:41:21;5.75;;;5.20;;
18322;SDS011;9287;49.456;11.064;2022-07-21T19:44:52;16.00;;;14.32;;
18322;SDS011;9287;49.456;11.064;2022-07-21T19:48:18;3.90;;;3.60;;
18322;SDS011;9287;49.456;11.064;2022-07-21T19:51:45;10.45;;;7.90;;
18322;SDS011;9287;49.456;11.064;2022-07-21T19:55:12;7.55;;;6.85;;
18322;SDS011;9287;49.456;11.064;2022-07-21T19:58:38;3.83;;;3.53;;
18322;SDS011;9287;49.456;11.064;2022-07-21T20:02:06;8.95;;;8.18;;
18322;SDS011;9287;49.456;11.064;2022-07-21T20:05:33;14.52;;;13.23;;
18322;SDS011;9287;49.456;11.064;2022-07-21T20:08:59;7.80;;;7.05;;
18322;SDS011;9287;49.456;11.064;2022-07-21T20:12:26;5.60;;;4.35;;